メインページ
METAR-TAF:

METAR-TAF

空港 :

テグシガルパ, ホンジュラス

トンコンティン国際空港

緯度: 14-03N, 経度: 087-13W, 海抜: 994m

現時点の気象観測

当レポートは51分前の01:00(UTC)に作成
の風 5kt
気温 25°C
湿度 69%
気圧 1018 hPa
視程10km以上
高度2600ftの雲はほとんどない, 積乱雲.
高度2800ftの雲は散在している

METAR: MHTG 260100Z 09005KT 9999 FEW026CB SCT028 25/19 Q1018 A3006 NOSIG

時間: 19:51 (01:51 UTC)

予報

当レポートは3時間26分前の22:25(UTC)に作成
予報は26日の 00時(UTC)から 26日の 24時(UTC)まで有効
北/北東の風 6kt
視程10km以上
高度2600ftの雲は散在している
高度8000ftの雲は散在している
26日の 04時(UTC)から 26日の 06時(UTC)まで徐々に
の風 kt
視程: 8000m
高度800ftの雲はほとんどない
高度2200ftの千切れ雲あり
近辺でにわか雨
26日の 14時(UTC)から 26日の 16時(UTC)まで徐々に
北/北東の風 6kt
視程10km以上
高度2800ftの雲は散在している
確率 30%
26日の 22時(UTC)から 26日の 24時(UTC)まで
視程: 8000m
高度2600ftの雲はほとんどない, 積乱雲.
高度3000ftの雲は散在している, 塔状積雲.
高度8000ftの雲は散在している
近辺でにわか雨

TAF: MHTG 252225Z 2600/2624 02006KT 9999 SCT026 SCT080 TX29/2620Z TN19/2612Z BECMG 2604/2606 00000KT 8000 VCSH FEW008 BKN022 BECMG 2614/2616 03006KT 9999 NSW SCT028 PROB30 2622/2624 8000 VCSH FEW026CB SCT030TCU SCT080

4,000以上の空港の気象観測と天気予報(METAR報とTAF報)

利用可能な観測所は地図上に黄色い丸と赤い丸で示す。

丸の上にカーソルを重ねると観測所名を参照できる。

次にクリックすると気象観測と天気予報を参照できる。

マップの切り替え:黒色「×」印の緑ボタンをクリックして拡大、「-」印の緑ボタンをクリックして縮小、緑色の三角印をクリックして隣りの地図に切り替え


METAR-TAF: